Time;durP1;ratioP1;P1;durP2;ratioP2;P2;SDS_P1;SDS_P2;PMS_P1;PMS_P2;Temp;Humidity;BMP_temperature;BMP_pressure;BME280_temperature;BME280_humidity;BME280_pressure;Samples;Min_cycle;Max_cycle;Signal;HPM_P1;HPM_P2
2021/10/12 00:01:47;;;;;;;20.52;2.05;;;10.30;99.90;;;;;;4973907;28;20080;-79
2021/10/12 00:04:13;;;;;;;17.60;2.05;;;10.30;99.90;;;;;;4990451;28;20524;-80
2021/10/12 00:06:39;;;;;;;15.07;2.38;;;10.30;99.90;;;;;;4988171;28;20050;-79
2021/10/12 00:09:05;;;;;;;15.13;2.10;;;10.30;99.90;;;;;;4987553;28;20050;-77
2021/10/12 00:11:31;;;;;;;10.75;2.35;;;10.30;99.90;;;;;;4991458;28;20034;-80
2021/10/12 00:13:57;;;;;;;17.38;2.05;;;10.40;99.90;;;;;;4971368;28;20540;-78
2021/10/12 00:16:23;;;;;;;11.38;2.55;;;10.40;99.90;;;;;;4970472;28;20049;-80
2021/10/12 00:18:49;;;;;;;13.15;2.20;;;10.50;99.90;;;;;;4985791;28;20058;-80
2021/10/12 00:21:16;;;;;;;15.57;2.22;;;10.50;99.90;;;;;;4985278;28;20060;-80
2021/10/12 00:23:42;;;;;;;17.65;2.30;;;10.60;99.90;;;;;;4988136;28;20894;-78
2021/10/12 00:26:07;;;;;;;18.70;1.80;;;10.70;99.90;;;;;;4992981;28;20046;-80
2021/10/12 00:28:33;;;;;;;10.15;1.70;;;10.60;99.90;;;;;;4988844;28;20050;-80
2021/10/12 00:31:00;;;;;;;13.88;1.70;;;10.60;99.90;;;;;;5005749;28;20053;-78
2021/10/12 00:33:26;;;;;;;15.98;2.22;;;10.60;99.90;;;;;;5007068;28;20397;-80
2021/10/12 00:35:52;;;;;;;14.27;2.10;;;10.60;99.90;;;;;;4987433;28;20045;-78
2021/10/12 00:38:17;;;;;;;21.73;2.58;;;10.60;99.90;;;;;;4993928;28;20109;-82
2021/10/12 00:40:43;;;;;;;17.13;2.33;;;10.60;99.90;;;;;;4999919;28;20044;-78
2021/10/12 00:43:29;;;;;;;15.07;1.92;;;10.50;99.90;;;;;;4977951;28;20076;-83
2021/10/12 00:45:57;;;;;;;12.15;2.38;;;10.50;99.90;;;;;;4998389;28;20075;-80
2021/10/12 00:48:23;;;;;;;12.32;2.20;;;10.50;99.90;;;;;;4997320;28;20074;-81
2021/10/12 00:50:49;;;;;;;10.73;1.83;;;10.50;99.90;;;;;;5010438;28;20045;-79
2021/10/12 00:53:15;;;;;;;13.80;1.83;;;10.40;99.90;;;;;;5007941;28;20061;-81
2021/10/12 00:55:41;;;;;;;11.32;2.35;;;10.40;99.90;;;;;;4994941;28;20050;-83
2021/10/12 00:58:09;;;;;;;15.50;1.60;;;10.40;99.90;;;;;;4992511;28;20507;-80
2021/10/12 01:00:36;;;;;;;19.67;1.92;;;10.50;99.90;;;;;;4992441;28;20050;-79
2021/10/12 01:03:03;;;;;;;14.98;2.28;;;10.50;99.90;;;;;;4976997;28;20140;-81
2021/10/12 01:05:29;;;;;;;15.77;2.28;;;10.50;99.90;;;;;;4984367;28;20065;-80
2021/10/12 01:07:55;;;;;;;14.05;1.67;;;10.50;99.90;;;;;;4992799;28;20049;-80
2021/10/12 01:10:22;;;;;;;17.38;1.90;;;10.60;99.90;;;;;;4976820;28;20100;-81
2021/10/12 01:12:49;;;;;;;18.45;2.22;;;10.60;99.90;;;;;;4994179;28;20029;-82
2021/10/12 01:15:15;;;;;;;19.73;2.70;;;10.60;99.90;;;;;;4995408;28;20049;-81
2021/10/12 01:17:41;;;;;;;19.75;2.47;;;10.60;99.90;;;;;;4993779;28;20475;-80
2021/10/12 01:20:11;;;;;;;13.65;2.13;;;10.60;99.90;;;;;;4975653;28;20420;-81
2021/10/12 01:22:41;;;;;;;12.73;2.20;;;10.60;99.90;;;;;;4992430;28;20034;-81
2021/10/12 01:25:08;;;;;;;15.35;2.50;;;10.60;99.90;;;;;;4976458;28;20495;-80
2021/10/12 01:27:34;;;;;;;13.85;2.08;;;10.60;99.90;;;;;;4991281;28;20061;-82
2021/10/12 01:30:00;;;;;;;10.68;2.08;;;10.60;99.90;;;;;;4975408;28;20072;-81
2021/10/12 01:32:26;;;;;;;12.13;1.80;;;10.50;99.90;;;;;;4994061;28;20030;-78
2021/10/12 01:34:52;;;;;;;21.63;2.47;;;10.50;99.90;;;;;;4992725;28;20096;-79
2021/10/12 01:37:18;;;;;;;18.60;2.50;;;10.50;99.90;;;;;;4992767;28;20037;-79
2021/10/12 01:39:43;;;;;;;14.63;2.00;;;10.50;99.90;;;;;;4992406;28;20500;-78
2021/10/12 01:42:09;;;;;;;15.13;2.05;;;10.50;99.90;;;;;;4991296;28;20046;-78
2021/10/12 01:44:35;;;;;;;19.65;2.42;;;10.50;99.90;;;;;;4995483;28;20518;-81
2021/10/12 01:47:01;;;;;;;14.00;2.10;;;10.50;99.90;;;;;;4975861;28;20069;-78
2021/10/12 01:49:27;;;;;;;17.92;2.25;;;10.40;99.90;;;;;;4992408;28;20041;-79
2021/10/12 01:51:53;;;;;;;16.73;2.47;;;10.50;99.90;;;;;;4992971;28;20049;-80
2021/10/12 01:54:22;;;;;;;23.20;2.35;;;10.50;99.90;;;;;;4995941;28;20042;-79
2021/10/12 01:56:49;;;;;;;16.45;2.30;;;10.50;99.90;;;;;;4978268;28;20120;-81
2021/10/12 01:59:16;;;;;;;19.50;2.30;;;10.50;99.90;;;;;;5010328;28;20045;-81
2021/10/12 02:01:42;;;;;;;16.20;2.03;;;10.60;99.90;;;;;;5008699;28;20046;-78
2021/10/12 02:04:08;;;;;;;15.75;1.98;;;10.60;99.90;;;;;;4974143;28;20483;-78
2021/10/12 02:06:34;;;;;;;14.40;1.83;;;10.60;99.90;;;;;;4974530;28;20140;-81
2021/10/12 02:09:00;;;;;;;24.05;2.20;;;10.60;99.90;;;;;;4976483;28;20038;-80
2021/10/12 02:11:26;;;;;;;12.90;2.13;;;10.60;99.90;;;;;;4975671;28;20038;-78
2021/10/12 02:13:52;;;;;;;16.27;1.80;;;10.60;99.90;;;;;;4980528;28;20202;-81
2021/10/12 02:16:18;;;;;;;14.90;1.75;;;10.60;99.90;;;;;;4993349;28;20041;-81
2021/10/12 02:18:43;;;;;;;19.45;2.25;;;10.60;99.90;;;;;;4992795;28;20076;-81
2021/10/12 02:21:09;;;;;;;12.35;2.13;;;10.60;99.90;;;;;;4992345;28;20430;-79
2021/10/12 02:23:35;;;;;;;9.93;1.50;;;10.60;99.90;;;;;;5009167;28;20462;-78
2021/10/12 02:26:01;;;;;;;14.77;2.00;;;10.60;99.90;;;;;;4993360;28;20041;-78
2021/10/12 02:28:28;;;;;;;13.13;1.90;;;10.60;99.90;;;;;;4965283;28;20108;-81
2021/10/12 02:30:54;;;;;;;11.95;1.83;;;10.60;99.90;;;;;;4973450;28;20049;-78
2021/10/12 02:33:20;;;;;;;17.48;2.60;;;10.70;99.90;;;;;;4988431;28;20056;-81
2021/10/12 02:35:45;;;;;;;20.73;2.20;;;10.70;99.90;;;;;;4989108;28;20046;-77
2021/10/12 02:38:11;;;;;;;11.82;1.58;;;10.70;99.90;;;;;;4989988;28;20042;-77
2021/10/12 02:40:37;;;;;;;29.70;2.33;;;10.70;99.90;;;;;;4983811;28;20042;-79
2021/10/12 02:43:03;;;;;;;10.48;1.80;;;10.70;99.90;;;;;;4988222;28;20048;-78
2021/10/12 02:45:29;;;;;;;8.52;2.00;;;10.70;99.90;;;;;;4974277;28;20046;-78
2021/10/12 02:47:54;;;;;;;18.17;2.30;;;10.80;99.90;;;;;;4987939;28;20045;-77
2021/10/12 02:50:20;;;;;;;11.55;1.92;;;10.80;99.90;;;;;;4971511;28;20111;-77
2021/10/12 02:52:46;;;;;;;12.68;1.90;;;10.80;99.90;;;;;;4989492;28;20034;-77
2021/10/12 02:55:11;;;;;;;18.17;2.38;;;10.80;99.90;;;;;;4986748;28;20038;-79
2021/10/12 02:57:37;;;;;;;16.25;2.47;;;10.90;99.90;;;;;;5008870;28;20367;-77
2021/10/12 03:00:05;;;;;;;15.50;2.28;;;10.70;99.90;;;;;;4990936;28;20080;-78
2021/10/12 03:02:30;;;;;;;18.48;2.10;;;10.70;99.90;;;;;;4984841;28;20478;-77
2021/10/12 03:04:56;;;;;;;17.38;2.42;;;10.70;99.90;;;;;;4985348;28;20069;-79
2021/10/12 03:07:22;;;;;;;15.45;1.92;;;10.90;99.90;;;;;;4988178;28;20047;-76
2021/10/12 03:09:47;;;;;;;17.35;2.42;;;10.80;99.90;;;;;;4988714;28;20033;-77
2021/10/12 03:12:13;;;;;;;17.98;2.22;;;10.80;99.90;;;;;;4988946;28;20041;-77
2021/10/12 03:14:39;;;;;;;18.65;2.30;;;10.80;99.90;;;;;;4961388;28;20042;-76
2021/10/12 03:17:05;;;;;;;20.98;2.25;;;10.80;99.90;;;;;;4990545;28;20033;-78
2021/10/12 03:19:31;;;;;;;12.27;1.73;;;10.80;99.90;;;;;;4990022;28;20717;-78
2021/10/12 03:22:05;;;;;;;13.75;1.95;;;10.80;99.90;;;;;;4989267;28;20046;-76
2021/10/12 03:24:31;;;;;;;25.75;2.83;;;10.80;99.90;;;;;;4991961;28;20096;-79
2021/10/12 03:26:56;;;;;;;12.40;1.83;;;10.90;99.90;;;;;;4975194;28;20531;-79
2021/10/12 03:29:22;;;;;;;20.35;2.60;;;10.80;99.90;;;;;;5000683;28;20413;-79
2021/10/12 03:31:47;;;;;;;16.33;2.30;;;10.90;99.90;;;;;;4991845;28;20069;-76
2021/10/12 03:34:13;;;;;;;13.63;2.10;;;10.90;99.90;;;;;;4969318;28;20048;-76
2021/10/12 03:36:39;;;;;;;14.57;1.75;;;10.80;99.90;;;;;;4991025;28;20397;-79
2021/10/12 03:39:04;;;;;;;19.30;2.25;;;10.80;99.90;;;;;;4985329;28;20038;-76
2021/10/12 03:41:30;;;;;;;14.80;2.05;;;10.80;99.90;;;;;;4974979;28;20157;-80
2021/10/12 03:43:56;;;;;;;12.13;2.13;;;10.80;99.90;;;;;;4991764;28;20038;-80
2021/10/12 03:46:21;;;;;;;12.50;2.25;;;10.90;99.90;;;;;;4988551;28;20042;-80
2021/10/12 03:48:47;;;;;;;17.90;2.28;;;10.80;99.90;;;;;;4990847;28;20120;-77
2021/10/12 03:51:13;;;;;;;16.25;2.65;;;10.90;99.90;;;;;;4988642;28;20042;-78
2021/10/12 03:53:38;;;;;;;17.65;2.25;;;10.80;99.90;;;;;;4989452;28;20047;-77
2021/10/12 03:56:04;;;;;;;16.15;2.50;;;10.80;99.90;;;;;;4975684;28;20442;-79
2021/10/12 03:58:30;;;;;;;19.20;2.20;;;10.80;99.90;;;;;;4993116;28;20045;-80
2021/10/12 04:00:56;;;;;;;20.15;2.45;;;10.80;99.90;;;;;;4993680;28;20041;-79
2021/10/12 04:03:22;;;;;;;20.08;2.42;;;10.80;99.90;;;;;;4962076;28;20208;-78
2021/10/12 04:05:48;;;;;;;20.10;2.47;;;10.90;99.90;;;;;;4993930;28;20048;-79
2021/10/12 04:08:14;;;;;;;18.42;2.35;;;10.90;99.90;;;;;;4977030;28;20117;-77
2021/10/12 04:10:40;;;;;;;15.15;2.28;;;10.90;99.90;;;;;;4977554;28;20038;-79
2021/10/12 04:13:05;;;;;;;18.30;2.72;;;11.00;99.90;;;;;;4988990;28;20045;-78
2021/10/12 04:15:35;;;;;;;14.85;2.17;;;10.90;99.90;;;;;;5010281;28;20192;-80
2021/10/12 04:18:00;;;;;;;14.52;2.10;;;10.90;99.90;;;;;;4984331;28;20448;-78
2021/10/12 04:20:27;;;;;;;14.75;2.30;;;10.90;99.90;;;;;;4975208;28;20046;-78
2021/10/12 04:22:55;;;;;;;12.27;2.00;;;11.00;99.90;;;;;;4985017;28;20414;-78
2021/10/12 04:25:21;;;;;;;18.27;2.25;;;10.90;99.90;;;;;;4991352;28;20065;-78
2021/10/12 04:27:47;;;;;;;19.35;2.33;;;10.90;99.90;;;;;;4992817;28;20097;-80
2021/10/12 04:30:13;;;;;;;16.25;2.28;;;10.90;99.90;;;;;;4994079;28;20068;-77
2021/10/12 04:32:38;;;;;;;23.17;2.45;;;10.90;99.90;;;;;;4992234;28;20926;-78
2021/10/12 04:35:05;;;;;;;15.85;2.40;;;10.90;99.90;;;;;;4969306;28;20056;-75
2021/10/12 04:37:31;;;;;;;11.52;2.10;;;11.00;99.90;;;;;;4994454;28;20129;-80
2021/10/12 04:39:57;;;;;;;13.55;2.33;;;11.00;99.90;;;;;;5011678;28;20121;-81
2021/10/12 04:42:22;;;;;;;25.73;2.38;;;11.00;99.90;;;;;;4992658;28;20050;-79
2021/10/12 04:44:50;;;;;;;18.15;3.03;;;11.10;99.90;;;;;;4994139;28;20034;-76
2021/10/12 04:47:18;;;;;;;16.20;3.47;;;11.10;99.90;;;;;;4992131;28;20100;-75
2021/10/12 04:49:44;;;;;;;17.52;4.32;;;11.20;99.90;;;;;;4976048;28;20046;-76
2021/10/12 04:52:09;;;;;;;22.05;3.10;;;11.20;99.90;;;;;;4993439;28;20038;-78
2021/10/12 04:54:35;;;;;;;21.38;2.58;;;11.30;99.90;;;;;;5010887;28;20038;-75
2021/10/12 04:57:01;;;;;;;16.45;2.03;;;11.30;99.90;;;;;;4993487;28;20145;-75
2021/10/12 04:59:26;;;;;;;13.38;1.98;;;11.30;99.90;;;;;;4988091;28;20398;-75
2021/10/12 05:01:52;;;;;;;16.55;1.88;;;11.30;99.90;;;;;;4998331;28;20085;-76
2021/10/12 05:04:18;;;;;;;15.60;2.25;;;11.30;99.90;;;;;;4996914;28;20030;-77
2021/10/12 05:06:43;;;;;;;8.43;1.63;;;11.30;99.90;;;;;;5003800;28;20396;-77
2021/10/12 05:09:09;;;;;;;10.63;1.77;;;11.20;99.90;;;;;;4999938;28;20030;-74
2021/10/12 05:11:35;;;;;;;13.18;1.65;;;11.20;99.90;;;;;;4981770;28;20046;-76
2021/10/12 05:14:00;;;;;;;7.60;1.50;;;11.20;99.90;;;;;;4992904;28;20053;-77
2021/10/12 05:16:28;;;;;;;8.68;0.90;;;11.10;99.90;;;;;;4974565;28;20078;-76
2021/10/12 05:18:57;;;;;;;9.35;1.00;;;11.00;99.90;;;;;;4977201;28;20157;-77
2021/10/12 05:21:23;;;;;;;8.07;1.23;;;11.00;99.90;;;;;;4994680;28;20161;-74
2021/10/12 05:23:49;;;;;;;10.07;1.33;;;11.00;99.90;;;;;;4980084;28;20050;-74
2021/10/12 05:26:15;;;;;;;12.57;1.00;;;10.90;99.90;;;;;;4994781;28;20480;-75
2021/10/12 05:28:41;;;;;;;11.57;1.20;;;11.00;99.90;;;;;;4992786;28;20089;-77
2021/10/12 05:31:06;;;;;;;11.82;0.77;;;11.00;99.90;;;;;;4995234;28;20038;-75
2021/10/12 05:33:33;;;;;;;12.05;1.00;;;11.00;99.90;;;;;;4978621;28;20060;-78
2021/10/12 05:36:00;;;;;;;9.80;1.10;;;10.90;99.90;;;;;;4976608;28;20117;-78
2021/10/12 05:38:27;;;;;;;10.70;0.88;;;10.90;99.90;;;;;;4995973;28;20046;-77
2021/10/12 05:40:53;;;;;;;12.02;1.02;;;10.90;99.90;;;;;;4996838;28;20186;-76
2021/10/12 05:43:19;;;;;;;6.53;1.20;;;10.90;99.90;;;;;;4981498;28;20133;-76
2021/10/12 05:45:45;;;;;;;14.27;1.50;;;10.90;99.90;;;;;;4978152;28;20045;-75
2021/10/12 05:48:12;;;;;;;14.05;1.20;;;10.90;99.90;;;;;;4988165;28;20180;-75
2021/10/12 05:50:42;;;;;;;10.63;1.58;;;11.00;99.90;;;;;;4991646;28;20133;-76
2021/10/12 06:00:53;;;;;;;22.70;3.50;;;11.00;99.90;;;;;;4983164;28;20106;-78
2021/10/12 06:03:19;;;;;;;15.02;3.65;;;11.10;99.90;;;;;;4992937;28;20041;-78
2021/10/12 06:05:44;;;;;;;14.82;3.67;;;11.00;99.90;;;;;;4992519;28;20378;-75
2021/10/12 06:08:10;;;;;;;12.48;3.45;;;11.00;99.90;;;;;;4977899;28;20037;-77
2021/10/12 06:10:37;;;;;;;14.40;3.60;;;11.00;99.90;;;;;;4993145;28;20042;-74
2021/10/12 06:13:09;;;;;;;11.05;1.38;;;11.20;99.90;;;;;;4993255;28;20049;-76
2021/10/12 06:15:34;;;;;;;10.48;1.52;;;11.00;99.90;;;;;;5011036;28;20073;-77
2021/10/12 06:18:00;;;;;;;11.30;1.23;;;11.00;99.90;;;;;;4989579;28;20033;-76
2021/10/12 06:20:26;;;;;;;14.35;1.60;;;11.00;99.90;;;;;;4991211;28;20045;-77
2021/10/12 06:22:51;;;;;;;14.55;1.42;;;11.00;99.90;;;;;;4991406;28;20034;-77
2021/10/12 06:25:17;;;;;;;15.85;1.55;;;11.00;99.90;;;;;;4992603;28;20397;-75
2021/10/12 06:27:43;;;;;;;18.95;1.40;;;10.90;99.90;;;;;;4990494;28;20042;-75
2021/10/12 06:30:10;;;;;;;14.75;1.30;;;10.90;99.90;;;;;;4969476;28;20064;-78
2021/10/12 06:32:37;;;;;;;13.43;1.45;;;10.90;99.90;;;;;;4991712;28;20042;-78
2021/10/12 06:35:03;;;;;;;11.25;1.77;;;10.90;99.90;;;;;;4991668;28;20192;-77
2021/10/12 06:37:29;;;;;;;8.73;1.20;;;10.90;99.90;;;;;;4992536;28;20489;-77
2021/10/12 06:39:55;;;;;;;12.05;1.25;;;10.90;99.90;;;;;;4996613;28;20041;-77
2021/10/12 06:42:20;;;;;;;12.48;1.30;;;10.80;99.90;;;;;;4993046;28;20081;-77
2021/10/12 06:44:46;;;;;;;14.45;2.08;;;10.90;99.90;;;;;;4992322;28;20563;-78
2021/10/12 06:47:12;;;;;;;14.95;1.73;;;10.80;99.90;;;;;;4975515;28;20042;-78
2021/10/12 06:49:37;;;;;;;12.77;1.70;;;10.80;99.90;;;;;;4991998;28;20069;-76
2021/10/12 06:52:03;;;;;;;13.88;1.65;;;10.90;99.90;;;;;;4991097;28;20049;-78
2021/10/12 06:54:29;;;;;;;11.35;1.95;;;10.80;99.90;;;;;;4991506;28;20086;-78
2021/10/12 06:56:59;;;;;;;29.25;1.65;;;10.90;99.90;;;;;;4989283;28;20049;-77
2021/10/12 06:59:25;;;;;;;17.23;1.67;;;10.90;99.90;;;;;;4979712;28;20465;-81
2021/10/12 07:01:52;;;;;;;13.63;2.10;;;11.10;99.90;;;;;;4996930;28;20057;-77
2021/10/12 07:04:18;;;;;;;14.18;1.95;;;11.20;99.90;;;;;;4986831;28;20057;-78
2021/10/12 07:06:43;;;;;;;20.52;2.00;;;11.30;99.90;;;;;;4988115;28;20057;-78
2021/10/12 07:09:10;;;;;;;13.20;2.10;;;11.20;99.90;;;;;;4965987;28;20054;-77
2021/10/12 07:11:36;;;;;;;13.15;2.20;;;11.20;99.90;;;;;;4991636;28;20132;-81
2021/10/12 07:14:02;;;;;;;17.88;1.70;;;11.20;99.90;;;;;;5010772;28;20627;-81
2021/10/12 07:16:28;;;;;;;13.85;1.88;;;11.20;99.90;;;;;;4976891;28;20144;-78
2021/10/12 07:18:54;;;;;;;17.35;1.88;;;11.20;99.90;;;;;;4987672;28;20065;-79
2021/10/12 07:21:19;;;;;;;20.27;1.77;;;11.20;99.90;;;;;;5016881;28;20076;-78
2021/10/12 07:23:45;;;;;;;13.43;1.95;;;11.10;99.90;;;;;;4977277;28;20429;-80
2021/10/12 07:26:11;;;;;;;13.70;1.98;;;11.10;99.90;;;;;;4976379;28;20046;-83
2021/10/12 07:28:37;;;;;;;13.38;2.22;;;11.20;99.90;;;;;;4991601;28;20461;-79
2021/10/12 07:31:04;;;;;;;13.10;1.83;;;11.30;99.90;;;;;;4977744;28;20049;-76
2021/10/12 07:33:30;;;;;;;14.13;2.10;;;11.40;99.90;;;;;;4996866;28;20080;-76
2021/10/12 07:35:56;;;;;;;13.13;1.50;;;11.40;99.90;;;;;;5005708;28;20041;-80
2021/10/12 07:38:22;;;;;;;10.52;1.63;;;11.50;99.90;;;;;;4996026;28;20034;-80
2021/10/12 07:40:48;;;;;;;13.98;2.13;;;11.50;99.90;;;;;;4994654;28;20136;-77
2021/10/12 07:43:13;;;;;;;9.88;1.90;;;11.50;99.90;;;;;;4996566;28;20601;-81
2021/10/12 07:45:39;;;;;;;18.88;2.80;;;11.50;99.90;;;;;;5013762;28;20042;-87
2021/10/12 07:48:05;;;;;;;18.90;2.80;;;11.50;99.90;;;;;;4980153;28;20050;-81
2021/10/12 07:50:30;;;;;;;11.40;2.97;;;11.90;99.90;;;;;;4974038;28;20034;-82
2021/10/12 07:52:56;;;;;;;17.95;3.28;;;11.60;99.90;;;;;;4983039;28;20046;-78
2021/10/12 07:57:57;;;;;;;18.23;2.75;;;11.70;99.90;;;;;;4994661;28;20129;-79
2021/10/12 08:00:25;;;;;;;14.80;2.63;;;11.70;99.90;;;;;;5007044;28;20116;-81
2021/10/12 08:02:54;;;;;;;17.27;2.72;;;11.80;99.90;;;;;;4981145;28;20177;-81
2021/10/12 08:05:22;;;;;;;15.32;2.72;;;11.80;99.90;;;;;;5013023;28;20052;-83
2021/10/12 08:07:49;;;;;;;12.40;1.90;;;11.90;99.90;;;;;;4996935;28;20058;-86
2021/10/12 08:10:16;;;;;;;12.80;2.10;;;11.90;99.90;;;;;;4977403;28;20446;-85
2021/10/12 08:12:43;;;;;;;10.82;2.13;;;11.90;99.90;;;;;;4988842;28;20077;-81
2021/10/12 08:15:09;;;;;;;17.17;2.63;;;11.90;99.90;;;;;;4981070;28;20054;-81
2021/10/12 08:17:35;;;;;;;12.30;1.83;;;11.90;99.90;;;;;;4996041;28;20065;-78
2021/10/12 08:20:00;;;;;;;14.40;1.98;;;12.00;99.90;;;;;;4993791;28;20058;-80
2021/10/12 08:22:26;;;;;;;13.07;1.88;;;12.00;99.90;;;;;;4995550;28;20116;-81
2021/10/12 08:24:51;;;;;;;15.18;2.00;;;12.00;99.90;;;;;;4995830;28;20050;-84
2021/10/12 08:27:17;;;;;;;11.55;2.03;;;12.20;99.90;;;;;;4996140;28;20042;-82
2021/10/12 08:29:43;;;;;;;12.93;1.50;;;12.00;99.90;;;;;;4995167;28;20100;-82
2021/10/12 08:32:08;;;;;;;13.55;1.92;;;12.00;99.90;;;;;;4987052;28;20048;-80
2021/10/12 08:34:34;;;;;;;12.07;1.98;;;12.00;99.90;;;;;;4996272;28;20057;-81
2021/10/12 08:37:00;;;;;;;11.45;1.73;;;12.10;99.90;;;;;;4978957;28;20410;-81
2021/10/12 08:39:32;;;;;;;13.20;1.90;;;12.10;99.90;;;;;;4977930;28;20050;-81
2021/10/12 08:42:07;;;;;;;16.05;1.88;;;12.20;99.90;;;;;;4996539;28;20061;-83
2021/10/12 08:44:56;;;;;;;7.70;1.63;;;12.20;99.90;;;;;;4979980;28;20347;-81
2021/10/12 08:47:23;;;;;;;9.85;1.30;;;12.20;99.90;;;;;;4993003;28;20058;-81
2021/10/12 08:49:50;;;;;;;12.65;1.75;;;12.30;99.90;;;;;;4997519;28;20038;-84
2021/10/12 08:52:16;;;;;;;9.55;1.38;;;12.30;99.90;;;;;;4995059;28;20067;-81
2021/10/12 08:54:42;;;;;;;10.40;1.90;;;12.30;99.90;;;;;;5016583;28;20137;-81
2021/10/12 08:57:08;;;;;;;15.63;1.80;;;12.30;99.90;;;;;;4997074;28;20045;-81
2021/10/12 08:59:53;;;;;;;7.55;1.50;;;12.30;99.90;;;;;;4995642;28;20054;-78
2021/10/12 09:02:19;;;;;;;8.30;1.80;;;12.30;99.90;;;;;;4995423;28;20085;-81
2021/10/12 09:04:45;;;;;;;11.77;2.08;;;12.30;99.90;;;;;;4991422;28;20121;-81
2021/10/12 09:07:22;;;;;;;9.15;1.50;;;12.30;99.90;;;;;;4996339;28;20057;-85
2021/10/12 09:09:50;;;;;;;6.25;1.23;;;12.30;99.90;;;;;;4996861;28;20053;-78
2021/10/12 09:12:18;;;;;;;7.45;1.08;;;12.30;99.90;;;;;;5003692;28;20045;-82
2021/10/12 09:15:00;;;;;;;7.43;1.45;;;12.30;99.90;;;;;;4970197;28;20041;-79
2021/10/12 09:17:37;;;;;;;10.93;1.33;;;12.40;99.90;;;;;;4994520;28;20046;-80
2021/10/12 09:20:23;;;;;;;6.38;1.33;;;12.50;99.90;;;;;;4993211;28;20060;-81
2021/10/12 09:23:25;;;;;;;6.43;1.30;;;12.50;99.90;;;;;;4979063;28;20144;-76
2021/10/12 09:25:51;;;;;;;11.77;1.58;;;12.60;99.90;;;;;;4931130;29;20129;-80
2021/10/12 09:28:22;;;;;;;11.15;1.70;;;12.50;99.90;;;;;;4934287;29;20071;-79
2021/10/12 09:30:48;;;;;;;8.73;1.33;;;12.60;99.90;;;;;;4915588;29;20067;-78
2021/10/12 09:33:14;;;;;;;8.52;1.30;;;12.60;99.90;;;;;;4917214;29;20055;-81
2021/10/12 09:35:42;;;;;;;7.28;1.38;;;12.70;99.90;;;;;;4926161;29;20051;-79
2021/10/12 09:38:12;;;;;;;7.93;1.00;;;12.70;99.90;;;;;;4909154;29;20048;-78
2021/10/12 09:40:41;;;;;;;4.30;1.42;;;12.70;99.90;;;;;;4933220;29;20083;-81
2021/10/12 09:43:07;;;;;;;11.80;1.60;;;12.70;99.90;;;;;;4916556;29;20036;-78
2021/10/12 09:45:44;;;;;;;12.82;1.42;;;12.80;99.90;;;;;;4930323;29;20388;-82
2021/10/12 09:48:45;;;;;;;5.72;1.20;;;12.90;99.90;;;;;;4928476;29;20046;-79
2021/10/12 09:51:15;;;;;;;10.35;1.60;;;12.90;99.90;;;;;;4846545;29;20104;-80
2021/10/12 09:53:43;;;;;;;5.03;1.10;;;12.90;99.90;;;;;;4845061;29;20053;-82
2021/10/12 09:56:10;;;;;;;3.08;0.60;;;13.10;99.90;;;;;;4839963;29;20061;-82
2021/10/12 09:58:36;;;;;;;9.90;1.27;;;13.10;99.90;;;;;;4834812;29;20493;-79
2021/10/12 10:01:10;;;;;;;5.63;1.00;;;13.20;99.90;;;;;;4881768;29;20617;-79
2021/10/12 10:03:36;;;;;;;7.80;1.00;;;13.30;99.90;;;;;;4916489;29;20070;-81
2021/10/12 10:06:12;;;;;;;7.88;1.30;;;13.30;99.90;;;;;;4924008;29;20492;-81
2021/10/12 10:08:40;;;;;;;9.93;1.80;;;13.30;99.90;;;;;;4910618;29;20496;-80
2021/10/12 10:11:06;;;;;;;5.00;1.50;;;13.50;99.90;;;;;;4892570;29;20040;-78
2021/10/12 10:13:34;;;;;;;16.70;2.05;;;13.60;99.90;;;;;;4916348;29;20048;-78
2021/10/12 10:16:01;;;;;;;9.20;1.70;;;13.80;99.90;;;;;;4884963;29;20111;-79
2021/10/12 10:18:28;;;;;;;8.20;1.80;;;13.70;99.90;;;;;;4912566;29;20496;-78
2021/10/12 10:20:55;;;;;;;12.00;1.70;;;13.60;99.90;;;;;;4911916;29;20543;-79
2021/10/12 10:24:21;;;;;;;7.03;1.40;;;13.60;99.90;;;;;;4908206;29;20059;-79
2021/10/12 10:26:47;;;;;;;7.82;1.13;;;13.60;99.90;;;;;;5007264;28;20049;-79
2021/10/12 10:29:38;;;;;;;8.23;1.30;;;13.60;99.90;;;;;;5011613;28;20644;-80
2021/10/12 10:32:24;;;;;;;10.55;1.30;;;13.60;99.90;;;;;;4994412;28;20037;-79
2021/10/12 10:35:01;;;;;;;6.57;1.15;;;13.50;99.90;;;;;;4992044;28;20053;-79
2021/10/12 10:37:29;;;;;;;10.27;2.13;;;13.70;99.90;;;;;;4992852;28;20056;-80
2021/10/12 10:40:34;;;;;;;9.85;1.30;;;13.80;99.90;;;;;;4992820;28;20049;-79
2021/10/12 10:43:01;;;;;;;7.60;1.55;;;14.00;99.90;;;;;;4992195;28;20056;-78
2021/10/12 10:45:40;;;;;;;8.27;1.50;;;14.00;99.90;;;;;;4991684;28;20061;-78
2021/10/12 10:48:05;;;;;;;10.60;1.55;;;14.00;99.90;;;;;;4982094;28;20366;-80
2021/10/12 10:50:34;;;;;;;6.43;1.35;;;13.90;99.90;;;;;;4976193;28;20061;-79
2021/10/12 10:53:02;;;;;;;9.50;1.95;;;13.80;99.90;;;;;;4993177;28;20081;-78
2021/10/12 10:55:33;;;;;;;13.77;1.50;;;13.70;99.90;;;;;;4991639;28;20037;-79
2021/10/12 10:58:16;;;;;;;14.10;1.30;;;13.70;99.90;;;;;;4989679;28;20045;-78
2021/10/12 11:00:45;;;;;;;8.32;0.98;;;14.20;99.90;;;;;;4987087;28;20050;-78
2021/10/12 11:03:32;;;;;;;9.45;1.58;;;14.30;99.90;;;;;;4992974;28;20057;-80
2021/10/12 11:05:59;;;;;;;7.10;1.40;;;14.10;99.90;;;;;;4992712;28;20140;-78
2021/10/12 11:08:29;;;;;;;9.30;1.80;;;14.00;99.90;;;;;;4993073;28;20042;-78
2021/10/12 11:10:57;;;;;;;15.13;1.77;;;13.70;99.90;;;;;;4985095;28;20050;-80
2021/10/12 11:13:41;;;;;;;4.57;1.00;;;13.40;99.90;;;;;;4973689;28;20125;-78
2021/10/12 11:16:12;;;;;;;10.52;1.65;;;12.90;99.90;;;;;;4973167;28;20080;-79
2021/10/12 11:18:40;;;;;;;9.18;1.20;;;13.00;99.90;;;;;;4990076;28;20037;-78
2021/10/12 11:21:15;;;;;;;9.20;1.83;;;13.00;99.90;;;;;;4969162;28;20479;-77
2021/10/12 11:23:49;;;;;;;10.55;1.75;;;13.10;99.90;;;;;;4990779;28;20097;-78
2021/10/12 11:26:18;;;;;;;10.55;1.85;;;13.20;99.90;;;;;;4972536;28;20045;-77
2021/10/12 11:28:51;;;;;;;8.02;1.65;;;13.40;99.90;;;;;;4991602;28;20037;-79
2021/10/12 11:31:20;;;;;;;10.23;1.70;;;13.60;99.90;;;;;;4986822;28;20053;-79
2021/10/12 11:34:23;;;;;;;10.02;1.77;;;13.90;99.90;;;;;;5001084;28;20102;-79
2021/10/12 11:36:49;;;;;;;9.90;1.20;;;14.20;99.90;;;;;;4913139;29;20135;-80
2021/10/12 11:39:15;;;;;;;9.60;1.65;;;14.20;99.90;;;;;;4898527;29;20130;-81
2021/10/12 11:41:40;;;;;;;9.73;1.42;;;14.00;99.90;;;;;;4912862;29;20059;-78
2021/10/12 11:44:20;;;;;;;8.95;1.67;;;13.90;99.90;;;;;;4915317;29;20055;-79
2021/10/12 11:46:49;;;;;;;7.30;1.15;;;13.70;99.90;;;;;;4934393;29;20142;-82
2021/10/12 11:49:17;;;;;;;7.25;1.52;;;13.80;99.90;;;;;;4931346;29;20044;-78
2021/10/12 11:51:44;;;;;;;5.97;1.30;;;13.20;99.90;;;;;;4932645;29;20402;-78
2021/10/12 11:54:11;;;;;;;6.57;1.48;;;12.90;99.90;;;;;;4929796;29;20043;-78
2021/10/12 11:56:38;;;;;;;11.57;2.05;;;12.60;99.90;;;;;;4931557;29;20059;-78
2021/10/12 11:59:06;;;;;;;8.43;1.70;;;12.30;99.90;;;;;;4924024;29;20047;-79
2021/10/12 12:01:34;;;;;;;12.98;2.20;;;12.10;99.90;;;;;;4932892;29;20149;-78
2021/10/12 12:04:02;;;;;;;12.82;1.63;;;12.10;99.90;;;;;;4932601;29;20171;-81
2021/10/12 12:06:33;;;;;;;6.70;1.50;;;12.00;99.90;;;;;;4948319;29;20400;-80
2021/10/12 12:09:19;;;;;;;7.10;1.23;;;12.10;99.90;;;;;;4926820;29;20055;-81
2021/10/12 12:11:45;;;;;;;7.32;1.50;;;12.10;99.90;;;;;;4948488;29;20112;-79
2021/10/12 12:14:11;;;;;;;8.65;1.45;;;12.00;99.90;;;;;;4987896;28;20061;-79
2021/10/12 12:16:37;;;;;;;11.88;1.52;;;11.90;99.90;;;;;;4996317;28;20057;-79
2021/10/12 12:19:24;;;;;;;9.10;1.42;;;11.90;99.90;;;;;;4997965;28;20568;-81
2021/10/12 12:21:50;;;;;;;10.80;1.45;;;11.90;99.90;;;;;;4972188;28;20037;-79
2021/10/12 12:24:21;;;;;;;8.02;1.63;;;12.00;99.90;;;;;;4991079;28;20050;-79
2021/10/12 12:26:48;;;;;;;9.75;1.60;;;12.00;99.90;;;;;;4979655;28;20038;-79
2021/10/12 12:29:20;;;;;;;11.15;2.22;;;12.10;99.90;;;;;;4997800;28;20042;-80
2021/10/12 12:31:50;;;;;;;8.70;1.92;;;12.20;99.90;;;;;;4979198;28;20453;-77
2021/10/12 12:34:24;;;;;;;9.57;1.92;;;12.20;99.90;;;;;;4978933;28;20073;-79
2021/10/12 12:36:50;;;;;;;9.43;2.00;;;12.30;99.90;;;;;;4996022;28;20073;-80
2021/10/12 12:39:15;;;;;;;14.50;2.70;;;12.40;99.90;;;;;;4985394;28;20080;-80
2021/10/12 12:41:42;;;;;;;9.95;2.08;;;12.70;99.90;;;;;;4992460;28;20141;-78
2021/10/12 12:44:08;;;;;;;10.15;1.85;;;13.10;99.90;;;;;;5026121;28;20053;-80
2021/10/12 12:46:36;;;;;;;10.40;1.83;;;13.30;99.90;;;;;;4993432;28;20091;-79
2021/10/12 12:49:01;;;;;;;8.02;1.60;;;13.80;99.90;;;;;;4981674;28;20049;-78
2021/10/12 12:51:36;;;;;;;8.82;1.63;;;14.00;99.90;;;;;;4976657;28;20042;-80
2021/10/12 12:54:02;;;;;;;;;;;14.20;99.90;;;;;;4991299;28;20497;-77
2021/10/12 12:56:37;;;;;;;9.07;1.27;;;14.50;99.90;;;;;;4976279;28;19924;-77